createdAt,value
2022-08-01T00:02:28.018Z,21.89
2022-08-01T00:10:02.041Z,21.85
2022-08-01T00:17:37.085Z,21.75
2022-08-01T00:25:10.873Z,21.52
2022-08-01T00:32:45.968Z,21.38
2022-08-01T00:40:19.490Z,21.28
2022-08-01T00:47:54.956Z,21.29
2022-08-01T00:55:29.514Z,21.35
2022-08-01T01:03:04.732Z,21.31
2022-08-01T01:10:42.516Z,21.24
2022-08-01T01:18:19.854Z,21.26
2022-08-01T01:26:03.795Z,21.23
2022-08-01T01:33:47.309Z,21.19
2022-08-01T01:41:21.967Z,21.16
2022-08-01T01:48:58.854Z,21.08
2022-08-01T01:56:32.991Z,21.02
2022-08-01T02:04:08.224Z,20.97
2022-08-01T02:12:08.030Z,20.93
2022-08-01T02:19:38.126Z,20.87
2022-08-01T02:27:13.695Z,20.82
2022-08-01T02:34:50.642Z,20.76
2022-08-01T02:42:25.671Z,20.73
2022-08-01T02:50:02.202Z,20.69
2022-08-01T02:57:44.691Z,20.61
2022-08-01T03:05:27.842Z,20.58
2022-08-01T03:13:02.412Z,20.45
2022-08-01T03:20:37.491Z,20.43
2022-08-01T03:28:14.085Z,20.30
2022-08-01T03:35:50.800Z,20.23
2022-08-01T03:43:28.983Z,20.23
2022-08-01T03:51:04.827Z,20.28
2022-08-01T03:58:40.537Z,20.22
2022-08-01T04:06:15.741Z,20.16
2022-08-01T04:13:49.348Z,20.17
2022-08-01T04:21:25.107Z,20.18
2022-08-01T04:28:58.784Z,20.12
2022-08-01T04:36:35.177Z,20.15
2022-08-01T04:44:08.923Z,20.11
2022-08-01T04:51:53.303Z,20.10
2022-08-01T04:59:42.351Z,20.12
2022-08-01T05:07:17.714Z,20.17
2022-08-01T05:14:51.939Z,20.14
2022-08-01T05:22:26.837Z,20.19
2022-08-01T05:30:00.411Z,20.22
2022-08-01T05:37:35.365Z,20.32
2022-08-01T05:45:09.211Z,20.31
2022-08-01T05:52:44.189Z,20.37
2022-08-01T06:00:18.107Z,20.34
2022-08-01T06:07:53.195Z,20.36
2022-08-01T06:15:26.809Z,20.49
2022-08-01T06:23:05.834Z,20.32
2022-08-01T06:30:55.666Z,20.13
2022-08-01T06:38:30.685Z,20.23
2022-08-01T06:46:04.255Z,20.22
2022-08-01T06:53:39.918Z,20.25
2022-08-01T07:01:13.588Z,20.36
2022-08-01T07:08:48.569Z,20.46
2022-08-01T07:16:22.184Z,20.50
2022-08-01T07:23:57.110Z,20.51
2022-08-01T07:31:32.501Z,20.61
2022-08-01T07:39:07.581Z,20.76
2022-08-01T07:46:41.120Z,20.90
2022-08-01T07:54:16.104Z,20.97
2022-08-01T08:01:49.755Z,20.74
2022-08-01T08:09:24.928Z,20.66
2022-08-01T08:16:58.448Z,20.99
2022-08-01T08:24:33.413Z,21.44
2022-08-01T08:32:07.683Z,21.57
2022-08-01T08:39:42.863Z,21.41
2022-08-01T08:47:20.290Z,21.55
2022-08-01T08:54:57.256Z,21.66
2022-08-01T09:02:30.866Z,21.61
2022-08-01T09:10:07.154Z,21.58
2022-08-01T09:17:43.570Z,21.50
2022-08-01T09:25:20.070Z,21.47
2022-08-01T09:32:57.246Z,21.67
2022-08-01T09:48:30.098Z,21.84
2022-08-01T09:56:10.603Z,21.69
2022-08-01T10:03:45.735Z,21.69
2022-08-01T10:11:20.557Z,21.62
2022-08-01T10:18:56.136Z,21.82
2022-08-01T10:26:31.603Z,21.81
2022-08-01T10:34:06.711Z,21.89
2022-08-01T10:41:42.398Z,21.90
2022-08-01T10:49:19.004Z,21.98
2022-08-01T10:56:54.341Z,22.31
2022-08-01T11:04:42.194Z,22.48
2022-08-01T11:12:24.719Z,22.60
2022-08-01T11:20:11.312Z,22.45
2022-08-01T11:27:46.746Z,22.38
2022-08-01T11:35:27.704Z,22.35
2022-08-01T11:43:21.183Z,22.19
2022-08-01T11:50:56.795Z,22.33
2022-08-01T11:58:31.452Z,22.47
2022-08-01T12:06:06.892Z,22.70
2022-08-01T12:13:41.635Z,22.75
2022-08-01T12:21:16.661Z,22.68
2022-08-01T12:28:52.322Z,22.89
2022-08-01T12:36:30.872Z,23.03
2022-08-01T12:44:04.638Z,23.24
2022-08-01T12:51:39.686Z,23.49
2022-08-01T12:59:25.124Z,23.53
2022-08-01T13:07:00.022Z,23.52
2022-08-01T13:14:33.602Z,23.54
2022-08-01T13:22:08.714Z,23.58
2022-08-01T13:29:43.104Z,24.05
2022-08-01T13:37:18.027Z,24.02
2022-08-01T13:44:51.670Z,24.25
2022-08-01T13:52:26.617Z,24.25
2022-08-01T14:00:00.847Z,24.04
2022-08-01T14:07:35.801Z,24.00
2022-08-01T14:15:12.354Z,24.10
2022-08-01T14:22:48.654Z,24.46
2022-08-01T14:30:22.477Z,24.80
2022-08-01T14:37:57.686Z,24.96
2022-08-01T14:45:31.424Z,25.37
2022-08-01T14:53:06.699Z,25.20
2022-08-01T15:00:40.420Z,25.24
2022-08-01T15:08:16.591Z,24.99
2022-08-01T15:15:50.222Z,24.81
2022-08-01T15:23:25.371Z,24.53
2022-08-01T15:30:59.762Z,24.36
2022-08-01T15:38:34.891Z,24.22
2022-08-01T15:46:08.806Z,24.30
2022-08-01T15:53:45.581Z,24.63
2022-08-01T16:01:19.229Z,24.69
2022-08-01T16:08:54.164Z,24.49
2022-08-01T16:16:27.965Z,24.43
2022-08-01T16:24:02.919Z,24.35
2022-08-01T16:31:45.272Z,24.33
2022-08-01T16:39:31.661Z,24.47
2022-08-01T16:47:09.240Z,24.55
2022-08-01T16:54:44.957Z,24.50
2022-08-01T17:02:18.565Z,24.36
2022-08-01T17:09:53.506Z,24.21
2022-08-01T17:17:27.179Z,24.08
2022-08-01T17:25:02.506Z,24.00
2022-08-01T17:32:36.445Z,23.92
2022-08-01T17:40:38.603Z,23.87
2022-08-01T17:48:07.127Z,23.84
2022-08-01T17:55:56.512Z,23.79
2022-08-01T18:03:32.757Z,23.74
2022-08-01T18:11:16.756Z,23.65
2022-08-01T18:18:50.681Z,23.60
2022-08-01T18:26:26.695Z,23.51
2022-08-01T18:34:00.882Z,23.38
2022-08-01T18:41:36.881Z,23.28
2022-08-01T18:49:11.417Z,23.16
2022-08-01T18:56:46.870Z,23.10
2022-08-01T19:04:20.417Z,22.97
2022-08-01T19:11:55.326Z,22.88
2022-08-01T19:19:29.013Z,22.82
2022-08-01T19:27:08.823Z,22.67
2022-08-01T19:34:48.358Z,22.55
2022-08-01T19:42:24.997Z,22.43
2022-08-01T19:49:58.545Z,22.30
2022-08-01T19:57:35.945Z,22.18
2022-08-01T20:05:19.044Z,21.98
2022-08-01T20:12:57.714Z,21.71
2022-08-01T20:20:32.968Z,21.60
2022-08-01T20:28:11.914Z,21.57
2022-08-01T20:35:52.850Z,21.51
2022-08-01T20:43:28.602Z,21.42
2022-08-01T20:51:17.856Z,21.34
2022-08-01T20:58:58.783Z,21.25
2022-08-01T21:06:34.959Z,21.22
2022-08-01T21:14:13.044Z,21.17
2022-08-01T21:21:51.757Z,21.12
2022-08-01T21:29:26.791Z,20.98
2022-08-01T21:37:01.028Z,20.84
2022-08-01T21:44:38.322Z,20.73
2022-08-01T21:52:15.139Z,20.55
2022-08-01T21:59:52.289Z,20.37
2022-08-01T22:07:27.345Z,20.33
2022-08-01T22:15:03.466Z,20.32
2022-08-01T22:22:50.877Z,20.29
2022-08-01T22:30:28.482Z,20.22
2022-08-01T22:38:02.943Z,20.17
2022-08-01T22:45:43.384Z,20.09
2022-08-01T22:53:23.034Z,20.03
2022-08-01T23:01:01.194Z,19.94
2022-08-01T23:08:35.108Z,19.83
2022-08-01T23:16:14.399Z,19.77
2022-08-01T23:23:50.709Z,19.70
2022-08-01T23:32:00.413Z,19.62
2022-08-01T23:39:19.518Z,19.53
2022-08-01T23:46:54.666Z,19.43
2022-08-01T23:54:28.242Z,19.47
